Time;durP1;ratioP1;P1;durP2;ratioP2;P2;SDS_P1;SDS_P2;PMS_P1;PMS_P2;Temp;Humidity;BMP_temperature;BMP_pressure;BME280_temperature;BME280_humidity;BME280_pressure;Samples;Min_cycle;Max_cycle;Signal;HPM_P1;HPM_P2
2022/11/13 00:01:54;;;;;;;;;;;;;;;8.66;95.67;102763.72;5016892;28;19922;-73
2022/11/13 00:04:20;;;;;;;;;;;;;;;8.65;95.75;102754.97;5016091;28;19909;-74
2022/11/13 00:06:45;;;;;;;;;;;;;;;8.66;95.75;102755.88;5016915;28;20111;-74
2022/11/13 00:09:10;;;;;;;;;;;;;;;8.64;95.88;102753.25;5016618;28;19905;-74
2022/11/13 00:11:35;;;;;;;;;;;;;;;8.63;96.04;102743.66;5017167;28;19928;-74
2022/11/13 00:14:01;;;;;;;;;;;;;;;8.63;95.79;102748.03;5015694;28;19943;-74
2022/11/13 00:16:26;;;;;;;;;;;;;;;8.63;95.85;102748.88;5014219;28;19964;-73
2022/11/13 00:18:51;;;;;;;;;;;;;;;8.63;96.06;102750.63;5017101;28;20232;-73
2022/11/13 00:21:18;;;;;;;;;;;;;;;8.63;96.15;102740.19;5016378;28;19971;-73
2022/11/13 00:23:43;;;;;;;;;;;;;;;8.63;96.08;102743.66;5017218;28;19948;-74
2022/11/13 00:26:13;;;;;;;;;;;;;;;8.62;96.06;102731.50;5016667;28;19919;-73
2022/11/13 00:28:38;;;;;;;;;;;;;;;8.63;96.22;102719.31;5017710;28;19923;-74
2022/11/13 00:31:04;;;;;;;;;;;;;;;8.62;96.30;102722.78;5016650;28;20124;-74
2022/11/13 00:33:29;;;;;;;;;;;;;;;8.61;96.10;102719.31;5017400;28;19948;-74
2022/11/13 00:36:09;;;;;;;;;;;;;;;8.61;96.16;102716.69;5017089;28;19917;-72
2022/11/13 00:38:35;;;;;;;;;;;;;;;8.61;96.37;102710.59;5017979;28;19913;-74
2022/11/13 00:41:00;;;;;;;;;;;;;;;8.60;96.58;102712.34;5016586;28;19936;-74
2022/11/13 00:43:25;;;;;;;;;;;;;;;8.60;96.48;102701.91;5017172;28;19992;-74
2022/11/13 00:45:51;;;;;;;;;;;;;;;8.59;96.44;102699.28;5017062;28;19960;-74
2022/11/13 00:48:16;;;;;;;;;;;;;;;8.59;96.43;102697.53;5016552;28;19960;-74
2022/11/13 00:50:42;;;;;;;;;;;;;;;8.58;96.52;102687.97;5016901;28;19944;-74
2022/11/13 00:53:07;;;;;;;;;;;;;;;8.58;96.59;102698.41;5016639;28;19925;-74
2022/11/13 00:55:32;;;;;;;;;;;;;;;8.57;96.72;102693.22;5017315;28;19959;-74
2022/11/13 00:57:57;;;;;;;;;;;;;;;8.57;96.56;102685.38;5016986;28;19948;-74
2022/11/13 01:00:23;;;;;;;;;;;;;;;8.56;96.56;102678.41;5015553;28;19952;-74
2022/11/13 01:02:48;;;;;;;;;;;;;;;8.56;96.51;102681.00;5016747;28;19937;-74
2022/11/13 01:05:13;;;;;;;;;;;;;;;8.55;96.36;102688.00;5016612;28;19924;-75
2022/11/13 01:07:39;;;;;;;;;;;;;;;8.54;96.56;102678.41;5017189;28;20228;-74
2022/11/13 01:10:04;;;;;;;;;;;;;;;8.54;96.30;102683.63;5016600;28;19913;-73
2022/11/13 01:12:29;;;;;;;;;;;;;;;8.52;96.48;102685.38;5016855;28;20217;-73
2022/11/13 01:14:55;;;;;;;;;;;;;;;8.53;96.38;102679.28;5017340;28;19928;-73
2022/11/13 01:17:20;;;;;;;;;;;;;;;8.54;96.35;102675.78;5019835;28;19937;-73
2022/11/13 01:19:45;;;;;;;;;;;;;;;8.53;96.69;102681.91;5020535;28;20119;-74
2022/11/13 01:22:11;;;;;;;;;;;;;;;8.53;96.51;102675.78;5020003;28;20124;-74
2022/11/13 01:24:36;;;;;;;;;;;;;;;8.53;96.68;102678.41;5020328;28;20079;-74
2022/11/13 01:27:01;;;;;;;;;;;;;;;8.52;96.48;102680.16;5019998;28;20408;-73
2022/11/13 01:29:26;;;;;;;;;;;;;;;8.52;96.74;102677.53;5020237;28;19983;-74
2022/11/13 01:31:52;;;;;;;;;;;;;;;8.50;96.71;102674.06;5020500;28;19917;-73
2022/11/13 01:34:17;;;;;;;;;;;;;;;8.49;96.77;102677.53;5019178;28;20521;-73
2022/11/13 01:36:42;;;;;;;;;;;;;;;8.49;96.60;102667.09;5020158;28;19949;-74
2022/11/13 01:39:09;;;;;;;;;;;;;;;8.48;96.75;102672.31;5019369;28;19913;-73
2022/11/13 01:41:34;;;;;;;;;;;;;;;8.46;96.65;102672.34;5020009;28;19951;-73
2022/11/13 01:44:00;;;;;;;;;;;;;;;8.45;96.95;102673.22;5019003;28;19917;-73
2022/11/13 01:46:51;;;;;;;;;;;;;;;8.43;96.73;102665.38;5019973;28;19984;-73
2022/11/13 01:49:25;;;;;;;;;;;;;;;8.42;96.78;102673.19;5015412;28;19955;-73
2022/11/13 01:51:58;;;;;;;;;;;;;;;8.41;96.49;102679.28;5020124;28;19909;-73
2022/11/13 01:54:35;;;;;;;;;;;;;;;8.39;96.79;102670.59;5008128;28;19983;-73
2022/11/13 01:57:01;;;;;;;;;;;;;;;8.38;96.67;102672.31;5005297;28;19909;-73
2022/11/13 01:59:32;;;;;;;;;;;;;;;8.38;97.01;102663.63;5019606;28;20128;-73
2022/11/13 02:05:02;;;;;;;;;;;;;;;8.37;96.81;102664.50;4768029;28;19909;-71
2022/11/13 02:07:27;;;;;;;;;;;;;;;8.37;96.69;102661.91;5021391;28;20075;-71
2022/11/13 02:09:54;;;;;;;;;;;;;;;8.35;96.79;102656.66;5019641;28;19909;-71
2022/11/13 02:12:23;;;;;;;;;;;;;;;8.34;96.76;102652.31;5019361;28;19917;-71
2022/11/13 02:14:51;;;;;;;;;;;;;;;8.34;96.89;102654.06;5019565;28;19937;-71
2022/11/13 02:17:36;;;;;;;;;;;;;;;8.32;96.87;102654.06;5019269;28;19914;-71
2022/11/13 02:20:03;;;;;;;;;;;;;;;8.31;96.87;102643.63;5002170;28;19917;-71
2022/11/13 02:22:35;;;;;;;;;;;;;;;8.30;96.87;102644.50;5019523;28;19913;-71
2022/11/13 02:25:02;;;;;;;;;;;;;;;8.29;96.82;102643.63;5018979;28;20384;-71
2022/11/13 02:27:35;;;;;;;;;;;;;;;8.27;96.70;102642.75;5018661;28;19920;-71
2022/11/13 02:30:20;;;;;;;;;;;;;;;8.25;96.55;102641.88;5019018;28;19944;-71
2022/11/13 02:32:47;;;;;;;;;;;;;;;8.24;96.59;102641.03;5019239;28;19960;-71
2022/11/13 02:35:13;;;;;;;;;;;;;;;8.23;96.92;102636.66;5018494;28;19936;-71
2022/11/13 02:37:39;;;;;;;;;;;;;;;8.23;96.52;102641.03;5019051;28;19920;-71
2022/11/13 02:40:04;;;;;;;;;;;;;;;8.20;96.58;102631.44;5018787;28;19917;-71
2022/11/13 02:42:29;;;;;;;;;;;;;;;8.19;96.50;102637.56;5018525;28;19921;-71
2022/11/13 02:44:55;;;;;;;;;;;;;;;8.19;96.49;102640.16;5018998;28;20000;-71
2022/11/13 02:47:20;;;;;;;;;;;;;;;8.17;96.64;102626.25;5010223;28;19924;-71
2022/11/13 02:49:45;;;;;;;;;;;;;;;8.15;96.55;102620.16;5019011;28;19910;-71
2022/11/13 02:52:10;;;;;;;;;;;;;;;8.14;96.91;102620.16;5018612;28;19929;-71
2022/11/13 02:54:36;;;;;;;;;;;;;;;8.14;96.64;102614.94;5018904;28;19917;-71
2022/11/13 02:57:01;;;;;;;;;;;;;;;8.13;96.49;102614.09;5018019;28;19967;-71
2022/11/13 02:59:26;;;;;;;;;;;;;;;8.11;96.50;102604.50;5018636;28;20036;-71
2022/11/13 03:01:52;;;;;;;;;;;;;;;8.10;96.79;102606.25;5018799;28;19921;-71
2022/11/13 03:04:17;;;;;;;;;;;;;;;8.08;96.63;102608.88;5018378;28;19925;-71
2022/11/13 03:06:42;;;;;;;;;;;;;;;8.08;96.70;102610.63;5029802;28;19961;-71
2022/11/13 03:09:07;;;;;;;;;;;;;;;8.08;96.66;102608.00;5018552;28;19932;-71
2022/11/13 03:11:32;;;;;;;;;;;;;;;8.06;96.72;102605.41;5018239;28;19941;-71
2022/11/13 03:13:58;;;;;;;;;;;;;;;8.05;96.72;102600.19;5018597;28;20113;-71
2022/11/13 03:16:23;;;;;;;;;;;;;;;8.04;96.68;102596.72;5018122;28;20283;-71
2022/11/13 03:18:48;;;;;;;;;;;;;;;8.05;96.74;102593.19;5018794;28;19925;-71
2022/11/13 03:21:14;;;;;;;;;;;;;;;8.03;96.83;102589.72;5017943;28;19915;-71
2022/11/13 03:23:40;;;;;;;;;;;;;;;8.03;96.52;102583.66;5018789;28;19987;-71
2022/11/13 03:26:06;;;;;;;;;;;;;;;8.02;96.56;102589.72;5018272;28;19924;-71
2022/11/13 03:28:32;;;;;;;;;;;;;;;8.01;96.45;102588.88;5011494;28;19920;-71
2022/11/13 03:30:57;;;;;;;;;;;;;;;8.00;96.75;102596.69;5018259;28;19921;-71
2022/11/13 03:33:23;;;;;;;;;;;;;;;8.00;96.55;102594.94;5017299;28;19917;-71
2022/11/13 03:35:48;;;;;;;;;;;;;;;7.98;96.60;102596.69;5018211;28;20277;-71
2022/11/13 03:38:13;;;;;;;;;;;;;;;7.98;96.63;102588.88;5016580;28;19925;-71
2022/11/13 03:40:38;;;;;;;;;;;;;;;7.97;96.51;102594.97;5018360;28;19921;-71
2022/11/13 03:43:04;;;;;;;;;;;;;;;7.97;96.67;102594.97;5017759;28;20228;-73
2022/11/13 03:45:29;;;;;;;;;;;;;;;7.96;96.47;102587.16;5017531;28;19971;-73
2022/11/13 03:47:54;;;;;;;;;;;;;;;7.95;96.71;102588.91;5017296;28;20207;-73
2022/11/13 03:50:19;;;;;;;;;;;;;;;7.93;96.38;102593.25;5017082;28;19925;-73
2022/11/13 03:52:45;;;;;;;;;;;;;;;7.93;96.35;102589.75;5017800;28;19992;-73
2022/11/13 03:55:10;;;;;;;;;;;;;;;7.92;96.43;102578.47;5017264;28;19921;-73
2022/11/13 03:57:35;;;;;;;;;;;;;;;7.91;96.28;102581.94;5016956;28;19979;-73
2022/11/13 04:00:00;;;;;;;;;;;;;;;7.89;96.39;102586.28;5017151;28;19921;-73
2022/11/13 04:02:26;;;;;;;;;;;;;;;7.89;96.22;102583.66;5017303;28;19909;-73
2022/11/13 04:04:51;;;;;;;;;;;;;;;7.88;96.23;102585.41;5017006;28;20152;-73
2022/11/13 04:07:16;;;;;;;;;;;;;;;7.87;96.32;102590.63;5016698;28;20220;-73
2022/11/13 04:09:41;;;;;;;;;;;;;;;7.86;95.99;102581.94;5016873;28;19921;-73
2022/11/13 04:12:06;;;;;;;;;;;;;;;7.85;96.04;102580.19;5017007;28;19959;-73
2022/11/13 04:14:32;;;;;;;;;;;;;;;7.84;96.02;102572.38;5016587;28;19917;-73
2022/11/13 04:16:57;;;;;;;;;;;;;;;7.84;95.85;102569.75;5017427;28;20143;-73
2022/11/13 04:19:22;;;;;;;;;;;;;;;7.85;96.06;102571.50;5016885;28;20227;-73
2022/11/13 04:21:47;;;;;;;;;;;;;;;7.84;96.15;102578.47;5016944;28;20111;-73
2022/11/13 04:24:13;;;;;;;;;;;;;;;7.84;95.95;102573.25;5016636;28;20240;-73
2022/11/13 04:26:38;;;;;;;;;;;;;;;7.83;96.29;102575.88;5016739;28;19928;-73
2022/11/13 04:29:03;;;;;;;;;;;;;;;7.82;95.99;102563.69;5016654;28;19914;-73
2022/11/13 04:31:28;;;;;;;;;;;;;;;7.83;96.22;102570.66;5010214;28;19913;-73
2022/11/13 04:33:54;;;;;;;;;;;;;;;7.82;96.14;102572.41;5015633;28;19979;-73
2022/11/13 04:36:19;;;;;;;;;;;;;;;7.81;96.33;102568.03;5016339;28;19956;-73
2022/11/13 04:38:44;;;;;;;;;;;;;;;7.83;96.33;102560.22;5017268;28;20091;-73
2022/11/13 04:43:55;;;;;;;;;;;;;;;7.81;96.47;102560.22;5016978;28;20051;-73
2022/11/13 04:46:20;;;;;;;;;;;;;;;7.80;96.26;102558.47;5016545;28;20228;-73
2022/11/13 04:48:46;;;;;;;;;;;;;;;7.80;96.47;102561.06;5017039;28;20101;-73
2022/11/13 04:51:12;;;;;;;;;;;;;;;7.79;96.21;102556.75;5018853;28;19909;-73
2022/11/13 04:53:37;;;;;;;;;;;;;;;7.79;96.44;102564.56;5020885;28;19951;-73
2022/11/13 04:56:02;;;;;;;;;;;;;;;7.79;96.29;102559.34;5020550;28;19909;-73
2022/11/13 04:58:27;;;;;;;;;;;;;;;7.79;96.45;102563.72;5021060;28;19920;-73
2022/11/13 05:00:53;;;;;;;;;;;;;;;7.77;96.31;102555.88;5020517;28;19947;-73
2022/11/13 05:03:18;;;;;;;;;;;;;;;7.77;96.68;102555.88;5028490;28;19921;-73
2022/11/13 05:05:43;;;;;;;;;;;;;;;7.76;96.45;102548.06;5020499;28;19922;-73
2022/11/13 05:08:09;;;;;;;;;;;;;;;7.75;96.14;102551.53;5020325;28;19921;-73
2022/11/13 05:10:34;;;;;;;;;;;;;;;7.75;96.27;102554.13;5020218;28;19924;-73
2022/11/13 05:13:00;;;;;;;;;;;;;;;7.74;96.29;102552.41;5020252;28;20152;-73
2022/11/13 05:15:25;;;;;;;;;;;;;;;7.73;96.24;102540.22;5012778;28;19996;-73
2022/11/13 05:17:50;;;;;;;;;;;;;;;7.72;96.16;102535.91;5020301;28;20195;-73
2022/11/13 05:20:16;;;;;;;;;;;;;;;7.71;95.96;102539.38;5019456;28;19996;-73
2022/11/13 05:22:41;;;;;;;;;;;;;;;7.69;96.02;102539.34;5020302;28;19925;-73
2022/11/13 05:25:06;;;;;;;;;;;;;;;7.68;96.02;102538.50;5019907;28;19913;-73
2022/11/13 05:27:31;;;;;;;;;;;;;;;7.69;96.18;102534.16;5019423;28;19972;-73
2022/11/13 05:29:57;;;;;;;;;;;;;;;7.69;96.10;102534.16;5020316;28;20193;-73
2022/11/13 05:32:22;;;;;;;;;;;;;;;7.67;96.33;102528.94;5019322;28;19916;-73
2022/11/13 05:34:47;;;;;;;;;;;;;;;7.67;96.24;102523.72;5019934;28;19913;-73
2022/11/13 05:37:12;;;;;;;;;;;;;;;7.66;96.12;102514.16;5019377;28;19917;-73
2022/11/13 05:39:38;;;;;;;;;;;;;;;7.66;96.21;102516.78;5019930;28;19913;-73
2022/11/13 05:42:04;;;;;;;;;;;;;;;7.67;96.16;102507.22;5019302;28;19997;-73
2022/11/13 05:44:29;;;;;;;;;;;;;;;7.66;96.34;102505.50;5019977;28;20121;-73
2022/11/13 05:46:54;;;;;;;;;;;;;;;7.66;96.41;102500.28;5019670;28;20241;-73
2022/11/13 05:49:20;;;;;;;;;;;;;;;7.65;96.30;102493.31;5019385;28;20235;-73
2022/11/13 05:51:45;;;;;;;;;;;;;;;7.65;96.33;102498.53;5019191;28;19916;-73
2022/11/13 05:54:10;;;;;;;;;;;;;;;7.63;96.48;102495.06;5019191;28;20232;-73
2022/11/13 05:56:36;;;;;;;;;;;;;;;7.63;96.37;102495.06;5019644;28;19968;-73
2022/11/13 05:59:02;;;;;;;;;;;;;;;7.61;96.29;102497.66;5019293;28;19917;-73
2022/11/13 06:01:29;;;;;;;;;;;;;;;7.60;96.30;102500.25;5019356;28;19920;-73
2022/11/13 06:03:55;;;;;;;;;;;;;;;7.59;96.32;102504.63;5019783;28;19913;-73
2022/11/13 06:06:21;;;;;;;;;;;;;;;7.58;96.28;102499.41;5018716;28;19909;-73
2022/11/13 06:08:47;;;;;;;;;;;;;;;7.57;96.21;102489.88;5019313;28;19917;-73
2022/11/13 06:11:14;;;;;;;;;;;;;;;7.54;96.22;102488.09;5018969;28;19983;-73
2022/11/13 06:13:39;;;;;;;;;;;;;;;7.53;96.25;102482.88;5019369;28;19920;-73
2022/11/13 06:16:06;;;;;;;;;;;;;;;7.52;96.32;102486.38;5019080;28;19941;-73
2022/11/13 06:18:31;;;;;;;;;;;;;;;7.49;96.11;102477.72;5019291;28;19921;-73
2022/11/13 06:21:01;;;;;;;;;;;;;;;7.49;96.27;102477.72;5018707;28;20128;-73
2022/11/13 06:23:26;;;;;;;;;;;;;;;7.48;96.19;102470.75;5018923;28;19984;-73
2022/11/13 06:25:51;;;;;;;;;;;;;;;7.49;96.18;102471.59;5019159;28;20112;-73
2022/11/13 06:28:16;;;;;;;;;;;;;;;7.48;96.33;102475.09;5018488;28;19996;-73
2022/11/13 06:30:42;;;;;;;;;;;;;;;7.47;96.25;102479.41;5018994;28;19928;-73
2022/11/13 06:33:07;;;;;;;;;;;;;;;7.45;96.26;102483.78;5017038;28;20103;-73
2022/11/13 06:35:32;;;;;;;;;;;;;;;7.45;96.34;102475.94;5018890;28;19917;-73
2022/11/13 06:37:58;;;;;;;;;;;;;;;7.42;96.39;102468.16;5018668;28;20160;-73
2022/11/13 06:40:23;;;;;;;;;;;;;;;7.42;96.24;102475.97;5018830;28;19909;-73
2022/11/13 06:42:48;;;;;;;;;;;;;;;7.42;96.41;102475.97;5018502;28;19927;-73
2022/11/13 06:45:13;;;;;;;;;;;;;;;7.42;96.24;102483.78;5018254;28;19918;-73
2022/11/13 06:47:38;;;;;;;;;;;;;;;7.41;96.32;102471.63;5018419;28;19971;-73
2022/11/13 06:50:05;;;;;;;;;;;;;;;7.41;96.25;102478.59;5018187;28;20263;-73
2022/11/13 06:52:30;;;;;;;;;;;;;;;7.40;96.38;102469.88;5018694;28;19948;-73
2022/11/13 06:54:56;;;;;;;;;;;;;;;7.41;96.41;102469.00;5018506;28;20120;-73
2022/11/13 06:57:21;;;;;;;;;;;;;;;7.40;96.24;102469.88;5018326;28;19909;-73
2022/11/13 06:59:46;;;;;;;;;;;;;;;7.39;96.37;102465.53;5018360;28;19921;-73
2022/11/13 07:02:11;;;;;;;;;;;;;;;7.38;96.30;102463.78;5018301;28;19909;-74
2022/11/13 07:04:36;;;;;;;;;;;;;;;7.39;96.36;102468.16;5018132;28;20216;-73
2022/11/13 07:07:03;;;;;;;;;;;;;;;7.38;96.13;102462.94;5016427;28;19913;-73
2022/11/13 07:09:28;;;;;;;;;;;;;;;7.36;96.14;102468.16;5018288;28;19913;-73
2022/11/13 07:11:53;;;;;;;;;;;;;;;7.35;96.18;102460.31;5018235;28;20158;-73
2022/11/13 07:14:18;;;;;;;;;;;;;;;7.36;96.32;102462.94;5017249;28;19921;-73
2022/11/13 07:16:44;;;;;;;;;;;;;;;7.35;96.37;102462.94;5018058;28;19993;-73
2022/11/13 07:19:09;;;;;;;;;;;;;;;7.37;96.57;102463.78;5017743;28;19921;-73
2022/11/13 07:21:34;;;;;;;;;;;;;;;7.37;96.35;102461.19;5017979;28;20116;-73
2022/11/13 07:23:59;;;;;;;;;;;;;;;7.37;96.69;102454.25;5018339;28;19917;-73
2022/11/13 07:26:25;;;;;;;;;;;;;;;7.37;96.74;102458.56;5017880;28;19922;-73
2022/11/13 07:28:50;;;;;;;;;;;;;;;7.37;96.79;102454.25;5018411;28;19959;-73
2022/11/13 07:31:16;;;;;;;;;;;;;;;7.38;96.66;102455.97;5017524;28;19924;-73
2022/11/13 07:33:41;;;;;;;;;;;;;;;7.38;96.70;102450.75;5018168;28;19911;-73
2022/11/13 07:36:07;;;;;;;;;;;;;;;7.37;96.89;102449.03;5017392;28;19947;-73
2022/11/13 07:38:32;;;;;;;;;;;;;;;7.39;97.05;102449.03;5017708;28;20200;-73
2022/11/13 07:40:58;;;;;;;;;;;;;;;7.39;97.10;102454.25;5017733;28;19917;-73
2022/11/13 07:43:23;;;;;;;;;;;;;;;7.39;96.94;102449.91;5017788;28;19914;-73
2022/11/13 07:45:53;;;;;;;;;;;;;;;7.38;96.96;102442.09;5017961;28;20283;-73
2022/11/13 07:48:19;;;;;;;;;;;;;;;7.39;97.15;102454.25;5016976;28;19917;-73
2022/11/13 07:50:44;;;;;;;;;;;;;;;7.39;97.10;102457.72;5017279;28;19917;-73
2022/11/13 07:53:09;;;;;;;;;;;;;;;7.39;97.20;102449.91;5016709;28;19909;-73
2022/11/13 07:55:35;;;;;;;;;;;;;;;7.38;97.21;102447.28;5017174;28;19916;-73
2022/11/13 07:58:01;;;;;;;;;;;;;;;7.39;97.05;102447.28;5016949;28;20024;-73
2022/11/13 08:00:27;;;;;;;;;;;;;;;7.39;97.09;102451.66;5017117;28;20178;-73
2022/11/13 08:02:52;;;;;;;;;;;;;;;7.40;97.20;102445.56;5017261;28;19936;-73
2022/11/13 08:05:18;;;;;;;;;;;;;;;7.40;97.40;102450.75;5016098;28;19925;-73
2022/11/13 08:07:47;;;;;;;;;;;;;;;7.40;97.34;102448.16;5017344;28;19909;-73
2022/11/13 08:10:12;;;;;;;;;;;;;;;7.41;97.60;102455.13;5017230;28;20219;-73
2022/11/13 08:12:37;;;;;;;;;;;;;;;7.42;97.60;102451.63;5017248;28;19917;-73
2022/11/13 08:15:03;;;;;;;;;;;;;;;7.42;97.77;102455.13;5017152;28;20243;-73
2022/11/13 08:17:28;;;;;;;;;;;;;;;7.43;97.88;102461.19;5016216;28;20128;-73
2022/11/13 08:19:53;;;;;;;;;;;;;;;7.44;97.89;102460.31;5016624;28;20118;-73
2022/11/13 08:22:19;;;;;;;;;;;;;;;7.45;98.06;102459.44;5015698;28;19928;-73
2022/11/13 08:24:44;;;;;;;;;;;;;;;7.45;98.20;102457.69;5016339;28;19913;-73
2022/11/13 08:27:09;;;;;;;;;;;;;;;7.46;98.17;102456.84;5020187;28;20204;-73
2022/11/13 08:29:36;;;;;;;;;;;;;;;7.46;97.92;102454.25;5020271;28;19921;-73
2022/11/13 08:32:01;;;;;;;;;;;;;;;7.44;97.50;102450.78;5019863;28;19947;-73
2022/11/13 08:34:26;;;;;;;;;;;;;;;7.43;97.59;102451.63;5019572;28;19939;-73
2022/11/13 08:36:51;;;;;;;;;;;;;;;7.43;97.67;102451.63;5019004;28;19925;-73
2022/11/13 08:39:17;;;;;;;;;;;;;;;7.43;97.63;102451.63;5016830;28;19928;-73
2022/11/13 08:41:42;;;;;;;;;;;;;;;7.44;97.86;102452.47;5019004;28;19917;-73
2022/11/13 08:44:07;;;;;;;;;;;;;;;7.44;97.87;102445.56;5017789;28;19949;-73
2022/11/13 08:46:33;;;;;;;;;;;;;;;7.45;97.85;102447.28;5014950;28;19922;-73
2022/11/13 08:48:58;;;;;;;;;;;;;;;7.46;97.91;102441.22;5015572;28;20398;-73
2022/11/13 08:51:23;;;;;;;;;;;;;;;7.46;97.88;102441.22;5017056;28;20128;-73
2022/11/13 08:53:48;;;;;;;;;;;;;;;7.47;97.95;102450.75;5017104;28;20407;-73
2022/11/13 08:56:14;;;;;;;;;;;;;;;7.48;97.98;102433.38;5016492;28;19924;-73
2022/11/13 08:58:39;;;;;;;;;;;;;;;7.49;98.06;102430.78;5015845;28;19988;-73
2022/11/13 09:01:04;;;;;;;;;;;;;;;7.51;98.49;102428.13;5015889;28;20132;-73
2022/11/13 09:03:29;;;;;;;;;;;;;;;7.54;98.52;102425.53;5012749;28;19922;-73
2022/11/13 09:05:55;;;;;;;;;;;;;;;7.56;98.77;102417.72;5017353;28;19960;-73
2022/11/13 09:08:20;;;;;;;;;;;;;;;7.57;98.44;102414.25;5016997;28;20426;-73
2022/11/13 09:10:45;;;;;;;;;;;;;;;7.58;98.73;102415.97;5016948;28;19928;-73
2022/11/13 09:13:11;;;;;;;;;;;;;;;7.59;98.94;102402.06;5017938;28;19921;-73
2022/11/13 09:15:37;;;;;;;;;;;;;;;7.60;98.89;102406.41;5018545;28;19937;-73
2022/11/13 09:18:02;;;;;;;;;;;;;;;7.61;99.05;102401.19;5017395;28;21409;-73
2022/11/13 09:20:29;;;;;;;;;;;;;;;7.62;99.00;102395.09;5017966;28;19967;-73
2022/11/13 09:22:58;;;;;;;;;;;;;;;7.63;99.01;102395.97;5017092;28;20255;-73
2022/11/13 09:25:23;;;;;;;;;;;;;;;7.64;98.91;102389.88;5017102;28;20217;-73
2022/11/13 09:27:58;;;;;;;;;;;;;;;7.66;99.12;102391.59;5017462;28;19921;-73
2022/11/13 09:30:24;;;;;;;;;;;;;;;7.67;99.50;102385.50;5014416;28;20128;-73
2022/11/13 09:32:56;;;;;;;;;;;;;;;7.69;98.99;102391.59;5018140;28;19985;-73
2022/11/13 09:35:33;;;;;;;;;;;;;;;7.71;98.79;102391.56;5017134;28;19973;-73
2022/11/13 09:37:59;;;;;;;;;;;;;;;7.71;98.11;102388.09;5017366;28;19905;-73
2022/11/13 09:40:27;;;;;;;;;;;;;;;7.73;98.35;102384.63;5016507;28;20220;-73
2022/11/13 09:42:53;;;;;;;;;;;;;;;7.74;98.29;102385.50;5015785;28;19913;-73
2022/11/13 09:45:18;;;;;;;;;;;;;;;7.74;97.82;102378.53;5016409;28;20109;-73
2022/11/13 09:47:45;;;;;;;;;;;;;;;7.76;97.37;102373.31;5016569;28;20139;-73
2022/11/13 09:50:10;;;;;;;;;;;;;;;7.78;97.27;102368.94;5015491;28;20124;-73
2022/11/13 09:52:37;;;;;;;;;;;;;;;7.80;96.79;102364.59;5013977;28;19976;-73
2022/11/13 09:55:03;;;;;;;;;;;;;;;7.81;96.75;102369.81;5013315;28;19917;-73
2022/11/13 09:57:48;;;;;;;;;;;;;;;7.84;96.99;102369.81;5012982;28;19927;-73
2022/11/13 10:00:20;;;;;;;;;;;;;;;7.87;96.78;102376.72;4993472;28;20234;-73
2022/11/13 10:03:11;;;;;;;;;;;;;;;7.90;96.59;102378.47;4994378;28;20000;-73
2022/11/13 10:05:36;;;;;;;;;;;;;;;7.93;96.55;102384.53;5002490;28;19917;-73
2022/11/13 10:08:20;;;;;;;;;;;;;;;7.97;96.62;102386.25;5016824;28;19921;-73
2022/11/13 10:10:45;;;;;;;;;;;;;;;8.01;96.43;102387.13;5016943;28;19913;-73
2022/11/13 10:13:13;;;;;;;;;;;;;;;8.03;96.30;102380.13;5017302;28;20223;-73
2022/11/13 10:15:40;;;;;;;;;;;;;;;8.07;96.32;102379.25;5017341;28;19914;-73
2022/11/13 10:18:10;;;;;;;;;;;;;;;8.11;96.06;102373.13;5016583;28;19928;-73
2022/11/13 10:20:42;;;;;;;;;;;;;;;8.14;95.87;102370.50;5016841;28;19914;-73
2022/11/13 10:23:11;;;;;;;;;;;;;;;8.17;95.86;102367.03;5016352;28;20212;-73
2022/11/13 10:25:37;;;;;;;;;;;;;;;8.22;95.89;102378.28;5015551;28;19917;-73
2022/11/13 10:28:10;;;;;;;;;;;;;;;8.24;95.74;102366.06;5016046;28;19924;-73
2022/11/13 10:30:35;;;;;;;;;;;;;;;8.26;95.80;102357.38;5016496;28;20159;-73
2022/11/13 10:33:03;;;;;;;;;;;;;;;8.30;96.00;102359.97;5016526;28;19952;-73
2022/11/13 10:35:31;;;;;;;;;;;;;;;8.34;96.13;102356.47;5016540;28;19913;-73
2022/11/13 10:38:03;;;;;;;;;;;;;;;8.37;95.89;102343.41;5016965;28;20147;-73
2022/11/13 10:40:33;;;;;;;;;;;;;;;8.41;95.49;102350.31;5016475;28;20070;-73
2022/11/13 10:43:14;;;;;;;;;;;;;;;8.46;95.61;102348.56;5015960;28;19960;-73
2022/11/13 10:45:40;;;;;;;;;;;;;;;8.49;95.49;102347.69;5016837;28;19917;-73
2022/11/13 10:48:05;;;;;;;;;;;;;;;8.52;95.36;102342.44;5015269;28;20270;-73
2022/11/13 10:50:31;;;;;;;;;;;;;;;8.55;95.20;102331.94;5016290;28;19963;-73
2022/11/13 10:52:57;;;;;;;;;;;;;;;8.59;95.22;102331.06;5016133;28;19917;-73
2022/11/13 10:55:31;;;;;;;;;;;;;;;8.61;95.17;102330.16;5016069;28;19917;-73
2022/11/13 10:57:57;;;;;;;;;;;;;;;8.65;94.81;102331.84;5016809;28;19905;-73
2022/11/13 11:00:30;;;;;;;;;;;;;;;8.68;94.67;102324.88;5015644;28;19956;-73
2022/11/13 11:02:55;;;;;;;;;;;;;;;8.71;94.45;102332.69;5016508;28;20211;-73
2022/11/13 11:05:21;;;;;;;;;;;;;;;8.73;94.43;102321.38;4998018;28;19925;-73
2022/11/13 11:07:47;;;;;;;;;;;;;;;8.77;94.56;102322.19;5016366;28;19921;-73
2022/11/13 11:10:32;;;;;;;;;;;;;;;8.81;94.36;102318.66;5015427;28;20113;-73
2022/11/13 11:13:01;;;;;;;;;;;;;;;8.83;93.62;102311.69;5016053;28;19913;-73
2022/11/13 11:15:31;;;;;;;;;;;;;;;8.87;93.70;102308.16;5016285;28;19920;-73
2022/11/13 11:17:59;;;;;;;;;;;;;;;8.91;93.58;102296.78;5015793;28;19921;-73
2022/11/13 11:20:42;;;;;;;;;;;;;;;8.96;93.79;102292.38;5015483;28;19921;-73
2022/11/13 11:23:08;;;;;;;;;;;;;;;9.00;93.07;102295.81;5015401;28;19924;-73
2022/11/13 11:25:36;;;;;;;;;;;;;;;9.03;92.90;102288.81;5015803;28;19917;-73
2022/11/13 11:28:10;;;;;;;;;;;;;;;9.07;92.80;102279.19;5015322;28;20275;-73
2022/11/13 11:30:39;;;;;;;;;;;;;;;9.12;93.05;102279.16;5015715;28;19988;-73
2022/11/13 11:33:04;;;;;;;;;;;;;;;9.14;92.94;102269.53;5009216;28;20098;-73
2022/11/13 11:35:44;;;;;;;;;;;;;;;9.16;93.36;102265.16;5015314;28;19992;-73
2022/11/13 11:38:15;;;;;;;;;;;;;;;9.19;93.53;102262.53;5015483;28;19913;-73
2022/11/13 11:40:43;;;;;;;;;;;;;;;9.22;93.07;102254.63;5015835;28;20020;-73
2022/11/13 11:43:22;;;;;;;;;;;;;;;9.26;93.06;102248.50;5015396;28;19913;-73
2022/11/13 11:45:47;;;;;;;;;;;;;;;9.30;92.46;102247.56;5044012;28;19917;-73
2022/11/13 11:48:15;;;;;;;;;;;;;;;9.33;92.73;102247.53;5014915;28;19981;-73
2022/11/13 11:50:49;;;;;;;;;;;;;;;9.37;92.42;102236.13;5015248;28;20021;-73
2022/11/13 11:53:19;;;;;;;;;;;;;;;9.40;91.66;102230.88;5014638;28;19917;-73
2022/11/13 11:55:55;;;;;;;;;;;;;;;9.44;91.49;102222.97;5014754;28;19913;-73
2022/11/13 11:58:23;;;;;;;;;;;;;;;9.47;91.35;102225.53;5014299;28;19983;-73
2022/11/13 12:00:49;;;;;;;;;;;;;;;9.51;90.82;102224.59;5027291;28;19913;-73
2022/11/13 12:03:21;;;;;;;;;;;;;;;9.54;91.23;102224.56;5013925;28;19988;-73
2022/11/13 12:05:46;;;;;;;;;;;;;;;9.54;91.44;102217.59;5015231;28;19921;-73
2022/11/13 12:08:23;;;;;;;;;;;;;;;9.55;91.04;102213.22;5014834;28;19905;-73
2022/11/13 12:10:57;;;;;;;;;;;;;;;9.55;91.29;102213.22;5015059;28;19947;-73
2022/11/13 12:13:36;;;;;;;;;;;;;;;9.57;91.43;102216.69;5014719;28;20218;-73
2022/11/13 12:16:08;;;;;;;;;;;;;;;9.58;91.44;102207.94;5014948;28;19996;-73
2022/11/13 12:18:53;;;;;;;;;;;;;;;9.62;91.92;102204.38;5012574;28;20225;-73
2022/11/13 12:21:23;;;;;;;;;;;;;;;9.66;92.39;102199.97;5003445;28;19928;-73
2022/11/13 12:24:01;;;;;;;;;;;;;;;9.68;92.17;102190.34;5014594;28;19921;-73
2022/11/13 12:26:29;;;;;;;;;;;;;;;9.72;91.93;102195.53;5014649;28;19947;-73
2022/11/13 12:28:54;;;;;;;;;;;;;;;9.77;91.77;102180.63;5014990;28;19940;-73
2022/11/13 12:31:38;;;;;;;;;;;;;;;9.82;91.51;102175.31;5014371;28;20212;-73
2022/11/13 12:34:21;;;;;;;;;;;;;;;9.87;91.40;102172.63;5014256;28;19916;-73
2022/11/13 12:36:47;;;;;;;;;;;;;;;9.92;90.90;102165.56;5014721;28;19921;-73
2022/11/13 12:39:15;;;;;;;;;;;;;;;9.95;90.56;102162.88;5013402;28;20309;-73
2022/11/13 12:41:47;;;;;;;;;;;;;;;9.97;90.52;102158.50;5013994;28;19988;-73
2022/11/13 12:44:23;;;;;;;;;;;;;;;10.01;89.77;102154.94;5004201;28;19979;-73
2022/11/13 12:46:50;;;;;;;;;;;;;;;10.04;90.11;102146.16;5014304;28;19925;-73
2022/11/13 12:49:25;;;;;;;;;;;;;;;10.06;90.17;102155.72;5013844;28;20084;-73
2022/11/13 12:51:54;;;;;;;;;;;;;;;10.09;90.35;102144.34;5014265;28;19918;-73